Time;durP1;ratioP1;P1;durP2;ratioP2;P2;SDS_P1;SDS_P2;PMS_P1;PMS_P2;Temp;Humidity;BMP_temperature;BMP_pressure;BME280_temperature;BME280_humidity;BME280_pressure;Samples;Min_cycle;Max_cycle;Signal;HPM_P1;HPM_P2
2021/01/10 00:01:19;;;;;;;17.70;11.47;;;-1.50;99.90;;;;;;6149868;23;20192;-88
2021/01/10 00:03:45;;;;;;;16.67;11.90;;;-1.60;99.90;;;;;;6198748;23;20744;-89
2021/01/10 00:06:11;;;;;;;16.97;11.30;;;-1.60;99.90;;;;;;6172855;23;20386;-89
2021/01/10 00:08:37;;;;;;;17.03;10.77;;;-1.60;99.90;;;;;;6172124;23;20668;-89
2021/01/10 00:11:04;;;;;;;17.50;10.90;;;-1.50;99.90;;;;;;6172694;23;20554;-88
2021/01/10 00:13:33;;;;;;;14.93;9.50;;;-1.60;99.90;;;;;;6148805;23;20225;-89
2021/01/10 00:15:59;;;;;;;16.63;10.70;;;-1.70;99.90;;;;;;6193681;23;20466;-88
2021/01/10 00:18:28;;;;;;;14.10;9.63;;;-1.70;99.90;;;;;;6171890;23;20392;-88
2021/01/10 00:20:56;;;;;;;17.50;11.20;;;-1.70;99.90;;;;;;6196039;23;20403;-88
2021/01/10 00:23:22;;;;;;;18.50;10.47;;;-1.80;99.90;;;;;;6171996;23;20827;-88
2021/01/10 00:25:48;;;;;;;17.87;11.03;;;-1.90;99.90;;;;;;6173202;23;20798;-88
2021/01/10 00:28:13;;;;;;;19.00;11.43;;;-1.80;99.90;;;;;;6171953;23;20202;-88
2021/01/10 00:30:41;;;;;;;16.67;11.10;;;-1.70;99.90;;;;;;6165262;23;20184;-88
2021/01/10 00:33:06;;;;;;;18.63;12.83;;;-1.70;99.90;;;;;;6172700;23;20613;-88
2021/01/10 00:35:32;;;;;;;18.83;10.87;;;-1.70;99.90;;;;;;6172392;23;20397;-88
2021/01/10 00:37:58;;;;;;;16.57;10.90;;;-1.70;99.90;;;;;;6171050;23;20171;-89
2021/01/10 00:40:25;;;;;;;20.47;12.40;;;-1.70;99.90;;;;;;6173582;23;20159;-89
2021/01/10 00:42:52;;;;;;;18.33;11.90;;;-1.60;99.90;;;;;;6172231;23;20695;-88
2021/01/10 00:45:18;;;;;;;17.20;11.97;;;-1.60;99.90;;;;;;6173227;23;20445;-88
2021/01/10 00:47:45;;;;;;;17.03;11.00;;;-1.60;99.90;;;;;;6170393;23;20414;-89
2021/01/10 00:50:13;;;;;;;17.20;11.73;;;-1.60;99.90;;;;;;6171986;23;21789;-87
2021/01/10 00:52:39;;;;;;;19.33;12.30;;;-1.60;99.90;;;;;;6199651;23;20163;-90
2021/01/10 00:55:07;;;;;;;17.53;11.50;;;-1.60;99.90;;;;;;6173865;23;20447;-91
2021/01/10 00:57:33;;;;;;;20.48;13.27;;;-1.60;99.90;;;;;;6173172;23;20407;-91
2021/01/10 00:59:59;;;;;;;19.80;12.10;;;-1.60;99.90;;;;;;6173624;23;20170;-90
2021/01/10 01:02:24;;;;;;;18.40;11.60;;;-1.60;99.90;;;;;;6173769;23;20646;-91
2021/01/10 01:04:50;;;;;;;16.27;11.80;;;-1.60;99.90;;;;;;6173515;23;20171;-90
2021/01/10 01:07:16;;;;;;;18.77;11.60;;;-1.60;99.90;;;;;;6199997;23;20242;-90
2021/01/10 01:12:33;;;;;;;19.70;12.40;;;-1.50;99.90;;;;;;6199745;23;20624;-90
2021/01/10 01:15:10;;;;;;;18.20;12.45;;;-1.60;99.90;;;;;;6173070;23;20470;-91
2021/01/10 01:17:43;;;;;;;17.00;10.83;;;-1.70;99.90;;;;;;6173371;23;20160;-91
2021/01/10 01:20:09;;;;;;;17.93;11.50;;;-1.70;99.90;;;;;;6175521;23;20402;-93
2021/01/10 01:22:35;;;;;;;15.02;10.88;;;-1.80;99.90;;;;;;6174227;23;20446;-90
2021/01/10 01:25:02;;;;;;;17.87;11.03;;;-1.80;99.90;;;;;;6174024;23;20178;-88
2021/01/10 01:27:27;;;;;;;18.70;10.77;;;-1.80;99.90;;;;;;6171763;23;20183;-88
2021/01/10 01:29:56;;;;;;;15.67;10.30;;;-1.90;99.90;;;;;;6171720;23;20487;-87
2021/01/10 01:32:22;;;;;;;15.47;10.03;;;-2.00;99.90;;;;;;6171776;23;20234;-87
2021/01/10 01:34:48;;;;;;;17.50;11.17;;;-2.10;99.90;;;;;;6171814;23;20403;-87
2021/01/10 01:37:13;;;;;;;15.23;9.90;;;-2.20;99.90;;;;;;6171700;23;20222;-87
2021/01/10 01:39:39;;;;;;;15.10;10.93;;;-2.30;99.90;;;;;;6171593;23;20163;-86
2021/01/10 01:42:05;;;;;;;16.13;10.47;;;-2.30;99.90;;;;;;6172452;23;20223;-87
2021/01/10 01:44:33;;;;;;;21.90;11.70;;;-2.30;99.90;;;;;;6171556;23;20191;-87
2021/01/10 01:47:09;;;;;;;19.00;11.50;;;-2.20;99.90;;;;;;6194723;23;20251;-87
2021/01/10 01:49:47;;;;;;;15.17;9.97;;;-2.20;99.90;;;;;;6198244;23;20422;-88
2021/01/10 01:52:13;;;;;;;16.60;10.13;;;-2.10;99.90;;;;;;6172046;23;20771;-86
2021/01/10 01:54:42;;;;;;;13.37;10.00;;;-2.10;99.90;;;;;;6171160;23;20477;-87
2021/01/10 01:57:12;;;;;;;16.65;11.75;;;-2.20;99.90;;;;;;6171531;23;20407;-87
2021/01/10 01:59:38;;;;;;;17.50;11.65;;;-2.40;99.90;;;;;;6171650;23;20174;-87
2021/01/10 02:02:08;;;;;;;15.83;10.10;;;-2.40;99.90;;;;;;6172092;23;20641;-87
2021/01/10 02:04:58;;;;;;;17.42;11.40;;;-2.40;99.90;;;;;;6171345;23;20171;-87
2021/01/10 02:07:31;;;;;;;16.65;11.07;;;-2.40;99.90;;;;;;6170865;23;20174;-86
2021/01/10 02:10:07;;;;;;;15.95;11.30;;;-2.40;99.90;;;;;;6172006;23;20519;-87
2021/01/10 02:12:37;;;;;;;15.40;10.65;;;-2.40;99.90;;;;;;6173380;23;20159;-87
2021/01/10 02:15:13;;;;;;;16.77;10.30;;;-2.40;99.90;;;;;;6173387;23;20175;-87
2021/01/10 02:17:41;;;;;;;15.88;10.65;;;-2.40;99.90;;;;;;6172523;23;20432;-87
2021/01/10 02:20:15;;;;;;;19.55;11.93;;;-2.30;99.90;;;;;;6171722;23;20178;-87
2021/01/10 02:23:21;;;;;;;15.27;9.68;;;-2.30;99.90;;;;;;6171824;23;20529;-86
2021/01/10 02:25:49;;;;;;;18.73;10.43;;;-2.20;99.90;;;;;;6154512;23;20200;-87
2021/01/10 02:28:19;;;;;;;18.23;10.55;;;-2.10;99.90;;;;;;6197060;23;20580;-87
2021/01/10 02:30:45;;;;;;;16.17;10.73;;;-2.20;99.90;;;;;;6173053;23;20174;-87
2021/01/10 02:33:53;;;;;;;15.97;9.43;;;-2.20;99.90;;;;;;6174537;23;20665;-86
2021/01/10 02:36:35;;;;;;;18.98;11.27;;;-2.30;99.90;;;;;;6173636;23;20617;-85
2021/01/10 02:39:25;;;;;;;15.10;10.70;;;-2.30;99.90;;;;;;6173373;23;20652;-86
2021/01/10 02:41:54;;;;;;;16.10;10.80;;;-2.40;99.90;;;;;;6174988;23;20669;-87
2021/01/10 02:44:39;;;;;;;17.45;11.00;;;-2.50;99.90;;;;;;6173411;23;20164;-87
2021/01/10 02:47:07;;;;;;;19.17;11.02;;;-2.50;99.90;;;;;;6173291;23;20191;-87
2021/01/10 02:49:34;;;;;;;15.75;11.23;;;-2.50;99.90;;;;;;6201448;23;20177;-86
2021/01/10 02:52:00;;;;;;;16.42;9.88;;;-2.60;99.90;;;;;;6174047;23;20408;-87
2021/01/10 02:54:27;;;;;;;16.10;10.67;;;-2.50;99.90;;;;;;6173749;23;20166;-85
2021/01/10 03:00:17;;;;;;;16.33;10.48;;;-2.60;99.90;;;;;;6200527;23;20159;-86
2021/01/10 03:02:45;;;;;;;15.32;10.02;;;-2.60;99.90;;;;;;6199731;23;20200;-85
2021/01/10 03:05:14;;;;;;;16.02;10.73;;;-2.50;99.90;;;;;;6174488;23;20168;-86
2021/01/10 03:07:42;;;;;;;16.13;10.60;;;-2.50;99.90;;;;;;6173284;23;20159;-85
2021/01/10 03:10:10;;;;;;;16.50;10.40;;;-2.50;99.90;;;;;;6173754;23;20159;-86
2021/01/10 03:12:37;;;;;;;17.38;10.63;;;-2.50;99.90;;;;;;6195992;23;20190;-86
2021/01/10 03:15:05;;;;;;;16.90;9.97;;;-2.40;99.90;;;;;;6174077;23;20700;-85
2021/01/10 03:17:44;;;;;;;14.48;9.30;;;-2.40;99.90;;;;;;6172186;23;20695;-85
2021/01/10 03:20:20;;;;;;;17.13;10.00;;;-2.50;99.90;;;;;;6164190;23;20168;-85
2021/01/10 03:22:47;;;;;;;16.23;10.20;;;-2.60;99.90;;;;;;6172772;23;20204;-86
2021/01/10 03:25:22;;;;;;;17.92;10.82;;;-2.70;99.90;;;;;;6173821;23;20170;-86
2021/01/10 03:27:48;;;;;;;14.30;9.93;;;-2.60;99.90;;;;;;6166539;23;20191;-85
2021/01/10 03:30:16;;;;;;;18.90;10.63;;;-2.60;99.90;;;;;;6173150;23;20171;-85
2021/01/10 03:32:45;;;;;;;16.38;10.73;;;-2.60;99.90;;;;;;6172052;23;20171;-86
2021/01/10 03:35:15;;;;;;;18.55;11.45;;;-2.60;99.90;;;;;;6200763;23;20496;-87
2021/01/10 03:37:57;;;;;;;15.20;10.32;;;-2.50;99.90;;;;;;6200243;23;20167;-86
2021/01/10 03:40:24;;;;;;;16.65;9.95;;;-2.50;99.90;;;;;;6172700;23;20580;-86
2021/01/10 03:42:50;;;;;;;17.98;10.65;;;-2.50;99.90;;;;;;6173312;23;20605;-86
2021/01/10 03:45:20;;;;;;;18.42;9.77;;;-2.50;99.90;;;;;;6172504;23;20171;-86
2021/01/10 03:47:47;;;;;;;16.58;10.63;;;-2.50;99.90;;;;;;6171280;23;20167;-86
2021/01/10 03:50:13;;;;;;;14.85;10.00;;;-2.40;99.90;;;;;;6200868;23;20251;-86
2021/01/10 03:52:41;;;;;;;17.97;10.60;;;-2.40;99.90;;;;;;6173573;23;20251;-87
2021/01/10 03:55:09;;;;;;;15.95;10.98;;;-2.50;99.90;;;;;;6199974;23;20441;-87
2021/01/10 03:57:49;;;;;;;18.17;10.57;;;-2.50;99.90;;;;;;6197268;23;20167;-87
2021/01/10 04:00:20;;;;;;;16.35;10.80;;;-2.40;99.90;;;;;;6173299;23;20170;-87
2021/01/10 04:02:48;;;;;;;16.58;10.35;;;-2.30;99.90;;;;;;6171863;23;20191;-87
2021/01/10 04:05:44;;;;;;;17.33;11.70;;;-2.20;99.90;;;;;;6200243;23;20168;-87
2021/01/10 04:08:22;;;;;;;14.85;9.50;;;-2.10;99.90;;;;;;6173116;23;20168;-87
2021/01/10 04:10:47;;;;;;;16.48;10.15;;;-2.10;99.90;;;;;;6169655;23;20281;-87
2021/01/10 04:13:13;;;;;;;17.30;11.50;;;-2.10;99.90;;;;;;6171616;23;20195;-86
2021/01/10 04:15:39;;;;;;;15.60;10.70;;;-2.10;99.90;;;;;;6199671;23;20452;-86
2021/01/10 04:18:05;;;;;;;17.93;10.40;;;-2.10;99.90;;;;;;6172908;23;20581;-86
2021/01/10 04:20:31;;;;;;;15.90;9.93;;;-2.10;99.90;;;;;;6197667;23;20240;-86
2021/01/10 04:22:57;;;;;;;16.80;10.70;;;-2.00;99.90;;;;;;6172797;23;20815;-86
2021/01/10 04:25:23;;;;;;;16.87;10.30;;;-2.10;99.90;;;;;;6171862;23;20459;-86
2021/01/10 04:27:55;;;;;;;13.57;10.65;;;-2.00;99.90;;;;;;6198459;23;20512;-85
2021/01/10 04:30:24;;;;;;;15.20;10.20;;;-2.10;99.90;;;;;;6195549;23;20187;-86
2021/01/10 04:32:53;;;;;;;16.98;10.80;;;-2.00;99.90;;;;;;6199832;23;20167;-86
2021/01/10 04:35:25;;;;;;;14.82;10.10;;;-2.00;99.90;;;;;;6187655;23;20174;-87
2021/01/10 04:37:52;;;;;;;15.68;9.48;;;-2.00;99.90;;;;;;6194865;23;20171;-87
2021/01/10 04:40:20;;;;;;;16.35;10.35;;;-2.00;99.90;;;;;;6199453;23;20183;-86
2021/01/10 04:42:52;;;;;;;15.30;10.55;;;-1.90;99.90;;;;;;6172685;23;20191;-86
2021/01/10 04:45:18;;;;;;;17.15;11.15;;;-1.80;99.90;;;;;;6172342;23;20258;-87
2021/01/10 04:47:44;;;;;;;16.90;9.43;;;-1.80;99.90;;;;;;6171130;23;20242;-86
2021/01/10 04:50:10;;;;;;;15.90;10.60;;;-1.80;99.90;;;;;;6172066;23;20406;-87
2021/01/10 04:52:38;;;;;;;14.13;10.03;;;-1.70;99.90;;;;;;6172717;23;20160;-87
2021/01/10 04:55:05;;;;;;;13.52;9.25;;;-1.70;99.90;;;;;;6172372;23;21045;-86
2021/01/10 04:57:35;;;;;;;14.50;9.20;;;-1.80;99.90;;;;;;6197518;23;20661;-86
2021/01/10 05:00:10;;;;;;;13.75;9.30;;;-1.70;99.90;;;;;;6173058;23;20468;-87
2021/01/10 05:02:50;;;;;;;15.10;9.87;;;-1.70;99.90;;;;;;6197381;23;20203;-87
2021/01/10 05:05:22;;;;;;;11.17;8.20;;;-1.70;99.90;;;;;;6172927;23;20406;-86
2021/01/10 05:07:50;;;;;;;14.27;9.50;;;-1.70;99.90;;;;;;6170153;23;20780;-86
2021/01/10 05:10:16;;;;;;;17.60;9.60;;;-1.70;99.90;;;;;;6195626;23;20394;-86
2021/01/10 05:12:42;;;;;;;13.77;8.80;;;-1.60;99.90;;;;;;6171980;23;20391;-86
2021/01/10 05:15:09;;;;;;;13.10;7.63;;;-1.60;99.90;;;;;;6172701;23;20403;-86
2021/01/10 05:17:36;;;;;;;11.20;8.50;;;-1.60;99.90;;;;;;6171696;23;20171;-86
2021/01/10 05:20:08;;;;;;;11.25;9.18;;;-1.60;99.90;;;;;;6172340;23;20402;-86
2021/01/10 05:22:38;;;;;;;17.37;9.20;;;-1.60;99.90;;;;;;6197647;23;20383;-87
2021/01/10 05:25:16;;;;;;;13.55;8.52;;;-1.60;99.90;;;;;;6172315;23;20995;-86
2021/01/10 05:27:47;;;;;;;11.93;7.90;;;-1.60;99.90;;;;;;6171471;23;20537;-87
2021/01/10 05:30:35;;;;;;;12.70;8.40;;;-1.60;99.90;;;;;;6172431;23;20395;-87
2021/01/10 05:33:08;;;;;;;11.90;7.40;;;-1.60;99.90;;;;;;6199209;23;20470;-86
2021/01/10 05:35:56;;;;;;;13.03;8.03;;;-1.60;99.90;;;;;;6195280;23;20402;-87
2021/01/10 05:38:29;;;;;;;12.07;8.40;;;-1.60;99.90;;;;;;6171930;23;20793;-86
2021/01/10 05:40:58;;;;;;;11.30;7.53;;;-1.50;99.90;;;;;;6171260;23;20495;-86
2021/01/10 05:43:28;;;;;;;10.47;7.73;;;-1.50;99.90;;;;;;6198369;23;20490;-86
2021/01/10 05:45:58;;;;;;;12.82;8.15;;;-1.50;99.90;;;;;;6198099;23;20386;-86
2021/01/10 05:48:24;;;;;;;13.32;8.10;;;-1.50;99.90;;;;;;6171101;23;20259;-86
2021/01/10 05:50:51;;;;;;;13.47;8.00;;;-1.40;99.90;;;;;;6171201;23;20199;-85
2021/01/10 05:53:25;;;;;;;12.40;8.10;;;-1.40;99.90;;;;;;6171107;23;20163;-86
2021/01/10 05:55:55;;;;;;;13.07;7.93;;;-1.40;99.90;;;;;;6171768;23;20395;-85
2021/01/10 05:58:26;;;;;;;11.10;7.30;;;-1.40;99.90;;;;;;6172015;23;20172;-85
2021/01/10 06:00:53;;;;;;;10.50;7.32;;;-1.40;99.90;;;;;;6171584;23;20394;-85
2021/01/10 06:03:23;;;;;;;11.80;7.57;;;-1.40;99.90;;;;;;6172066;23;20569;-85
2021/01/10 06:06:08;;;;;;;11.15;8.00;;;-1.40;99.90;;;;;;6170592;23;20164;-86
2021/01/10 06:08:38;;;;;;;10.03;7.40;;;-1.40;99.90;;;;;;6171561;23;20179;-86
2021/01/10 06:11:25;;;;;;;10.47;7.47;;;-1.40;99.90;;;;;;6171781;23;20566;-86
2021/01/10 06:14:05;;;;;;;8.90;6.80;;;-1.20;99.90;;;;;;6199872;23;20449;-86
2021/01/10 06:16:56;;;;;;;12.57;7.80;;;-1.10;99.90;;;;;;6193095;23;20409;-87
2021/01/10 06:19:29;;;;;;;10.27;7.27;;;-1.10;99.90;;;;;;6197620;23;20405;-87
2021/01/10 06:21:59;;;;;;;11.97;8.20;;;-1.10;99.90;;;;;;6196276;23;20791;-87
2021/01/10 06:24:29;;;;;;;9.57;6.87;;;-1.10;99.90;;;;;;6171723;23;20804;-86
2021/01/10 06:27:04;;;;;;;10.07;6.83;;;-1.10;99.90;;;;;;6170421;23;20458;-87
2021/01/10 06:29:41;;;;;;;12.90;7.70;;;-1.10;99.90;;;;;;6171144;23;20454;-87
2021/01/10 06:32:12;;;;;;;12.73;7.00;;;-1.00;99.90;;;;;;6170863;23;20394;-87
2021/01/10 06:34:42;;;;;;;11.40;7.17;;;-1.00;99.90;;;;;;6197905;23;20383;-86
2021/01/10 06:37:10;;;;;;;12.90;9.17;;;-1.00;99.90;;;;;;6169993;23;20406;-86
2021/01/10 06:42:40;;;;;;;11.82;7.82;;;-1.10;99.90;;;;;;6151085;23;20972;-85
2021/01/10 06:45:08;;;;;;;10.83;6.97;;;-1.00;99.90;;;;;;6171458;23;20187;-86
2021/01/10 06:47:33;;;;;;;12.00;7.40;;;-1.00;99.90;;;;;;6170311;23;20392;-87
2021/01/10 06:49:59;;;;;;;8.73;6.83;;;-1.00;99.90;;;;;;6198003;23;20516;-86
2021/01/10 06:52:29;;;;;;;10.43;7.03;;;-1.00;99.90;;;;;;6171199;23;20183;-86
2021/01/10 06:54:55;;;;;;;9.33;7.07;;;-1.00;99.90;;;;;;6170447;23;20178;-86
2021/01/10 06:57:31;;;;;;;10.63;7.60;;;-1.00;99.90;;;;;;6169961;23;20403;-86
2021/01/10 07:00:08;;;;;;;8.60;6.67;;;-1.10;99.90;;;;;;6196117;23;20405;-87
2021/01/10 07:03:06;;;;;;;11.27;7.50;;;-1.10;99.90;;;;;;6171080;23;20875;-87
2021/01/10 07:06:12;;;;;;;8.90;6.60;;;-1.10;99.90;;;;;;6172289;23;20418;-86
2021/01/10 07:08:54;;;;;;;11.55;6.38;;;-1.10;99.90;;;;;;6192875;23;20394;-87
2021/01/10 07:11:23;;;;;;;9.37;6.37;;;-1.10;99.90;;;;;;6170169;23;20239;-86
2021/01/10 07:14:12;;;;;;;11.07;7.07;;;-1.10;99.90;;;;;;6170426;23;20497;-85
2021/01/10 07:17:17;;;;;;;9.27;6.22;;;-1.20;99.90;;;;;;6155054;23;20469;-86
2021/01/10 07:19:48;;;;;;;7.93;5.83;;;-1.20;99.90;;;;;;6174207;23;20501;-87
2021/01/10 07:22:32;;;;;;;10.00;6.97;;;-1.30;99.90;;;;;;6173394;23;20452;-87
2021/01/10 07:25:19;;;;;;;11.00;7.22;;;-1.20;99.90;;;;;;6172542;23;20419;-87
2021/01/10 07:27:44;;;;;;;11.50;7.53;;;-1.20;99.90;;;;;;6171107;23;20187;-86
2021/01/10 07:30:24;;;;;;;13.17;8.53;;;-1.10;99.90;;;;;;6171942;23;20417;-87
2021/01/10 07:32:50;;;;;;;12.60;8.27;;;-1.10;99.90;;;;;;6171624;23;20172;-87
2021/01/10 07:35:16;;;;;;;11.38;7.88;;;-1.10;99.90;;;;;;6171929;23;20522;-87
2021/01/10 07:37:45;;;;;;;12.63;8.57;;;-1.20;99.90;;;;;;6171860;23;20562;-87
2021/01/10 07:40:11;;;;;;;14.55;9.27;;;-1.20;99.90;;;;;;6182272;23;20414;-87
2021/01/10 07:42:40;;;;;;;13.70;9.53;;;-1.20;99.90;;;;;;6172107;23;20642;-87
2021/01/10 07:45:17;;;;;;;13.13;9.40;;;-1.30;99.90;;;;;;6198670;23;20393;-88
2021/01/10 07:47:45;;;;;;;13.57;8.80;;;-1.20;99.90;;;;;;6170516;23;20173;-87
2021/01/10 07:50:57;;;;;;;12.90;9.37;;;-1.20;99.90;;;;;;6170995;23;20404;-87
2021/01/10 07:53:49;;;;;;;14.10;9.30;;;-1.10;99.90;;;;;;6198535;23;20394;-89
2021/01/10 07:56:16;;;;;;;15.23;8.80;;;-1.10;99.90;;;;;;6172405;23;20408;-88
2021/01/10 07:58:41;;;;;;;14.47;9.40;;;-1.10;99.90;;;;;;6171764;23;20390;-88
2021/01/10 08:01:13;;;;;;;15.30;9.50;;;-1.10;99.90;;;;;;6171252;23;20878;-87
2021/01/10 08:03:39;;;;;;;15.20;10.40;;;-1.10;99.90;;;;;;6171899;23;20485;-88
2021/01/10 08:06:06;;;;;;;14.53;10.60;;;-1.00;99.90;;;;;;6171822;23;20824;-87
2021/01/10 08:08:45;;;;;;;13.73;10.13;;;-1.00;99.90;;;;;;6172187;23;20258;-86
2021/01/10 08:11:12;;;;;;;11.77;9.70;;;-0.90;99.90;;;;;;6197839;23;20858;-87
2021/01/10 08:13:44;;;;;;;13.87;10.07;;;-0.90;99.90;;;;;;6172118;23;20944;-87
2021/01/10 08:16:28;;;;;;;15.50;10.63;;;-0.90;99.90;;;;;;6172466;23;20402;-87
2021/01/10 08:18:53;;;;;;;14.03;9.80;;;-0.90;99.90;;;;;;6172330;23;20460;-87
2021/01/10 08:21:19;;;;;;;15.10;9.83;;;-0.90;99.90;;;;;;6172825;23;20924;-86
2021/01/10 08:23:54;;;;;;;13.93;9.67;;;-0.70;99.90;;;;;;6172168;23;20407;-86
2021/01/10 08:26:20;;;;;;;12.77;9.27;;;-0.60;99.90;;;;;;6172064;23;20173;-87
2021/01/10 08:28:52;;;;;;;12.43;9.53;;;-0.60;99.90;;;;;;6171743;23;20825;-87
2021/01/10 08:31:21;;;;;;;14.10;9.40;;;-0.60;99.90;;;;;;6172673;23;20718;-88
2021/01/10 08:33:49;;;;;;;12.37;8.87;;;-0.50;99.90;;;;;;6198191;23;20713;-87
2021/01/10 08:36:22;;;;;;;14.20;9.40;;;-0.40;99.90;;;;;;6196123;23;20409;-87
2021/01/10 08:39:15;;;;;;;10.33;8.70;;;-0.30;99.90;;;;;;6171076;23;21753;-87
2021/01/10 08:41:44;;;;;;;12.53;8.77;;;-0.30;99.90;;;;;;6171832;23;20932;-87
2021/01/10 08:44:13;;;;;;;11.40;8.63;;;-0.20;99.90;;;;;;6171330;23;20446;-88
2021/01/10 08:46:44;;;;;;;14.73;9.00;;;-0.20;99.90;;;;;;6171668;23;20394;-88
2021/01/10 08:49:25;;;;;;;12.53;8.27;;;-0.20;99.90;;;;;;6191132;23;20400;-87
2021/01/10 08:51:51;;;;;;;12.57;8.67;;;0.00;99.90;;;;;;6171948;23;20536;-87
2021/01/10 08:54:23;;;;;;;14.90;8.77;;;0.10;99.90;;;;;;6170897;23;20477;-87
2021/01/10 08:56:57;;;;;;;12.20;8.37;;;0.10;99.90;;;;;;6170550;23;20741;-87
2021/01/10 08:59:34;;;;;;;10.13;8.23;;;0.10;99.90;;;;;;6171440;23;20406;-87
2021/01/10 09:02:09;;;;;;;10.20;8.20;;;0.20;99.90;;;;;;6170789;23;20710;-87
2021/01/10 09:04:42;;;;;;;11.23;7.73;;;0.30;99.90;;;;;;6171040;23;20940;-87
2021/01/10 09:07:11;;;;;;;12.97;8.90;;;0.50;99.90;;;;;;6170760;23;20779;-87
2021/01/10 09:09:47;;;;;;;14.27;8.47;;;0.90;99.90;;;;;;6171626;23;20391;-86
2021/01/10 09:12:38;;;;;;;12.60;9.10;;;1.00;99.90;;;;;;6171154;23;20407;-87
2021/01/10 09:15:19;;;;;;;12.23;8.10;;;1.00;99.90;;;;;;6170707;23;20418;-87
2021/01/10 09:17:52;;;;;;;10.30;7.50;;;1.20;99.90;;;;;;6171027;23;20725;-87
2021/01/10 09:20:38;;;;;;;13.47;9.90;;;1.50;99.90;;;;;;6198557;23;20394;-87
2021/01/10 09:23:08;;;;;;;12.93;8.80;;;1.60;99.90;;;;;;6171001;23;20801;-87
2021/01/10 09:25:41;;;;;;;9.43;7.20;;;1.80;99.90;;;;;;6171722;23;20395;-89
2021/01/10 09:28:11;;;;;;;10.63;7.70;;;1.90;99.90;;;;;;6170151;23;20477;-90
2021/01/10 09:30:58;;;;;;;10.03;7.67;;;1.90;99.90;;;;;;6171252;23;20396;-88
2021/01/10 09:33:36;;;;;;;9.80;7.67;;;2.20;99.90;;;;;;6170729;23;20417;-88
2021/01/10 09:36:03;;;;;;;11.57;7.97;;;2.40;99.90;;;;;;6171162;23;20402;-88
2021/01/10 09:38:32;;;;;;;11.60;8.70;;;2.50;99.90;;;;;;6172748;23;20391;-89
2021/01/10 09:41:10;;;;;;;9.77;8.20;;;2.80;99.90;;;;;;6171232;23;20757;-86
2021/01/10 09:43:47;;;;;;;10.37;7.80;;;2.80;99.90;;;;;;6172865;23;20412;-89
2021/01/10 09:46:33;;;;;;;10.23;8.30;;;3.00;99.90;;;;;;6170616;23;20562;-89
2021/01/10 09:49:05;;;;;;;9.00;7.67;;;3.10;99.90;;;;;;6169780;23;20396;-87
2021/01/10 09:51:51;;;;;;;7.93;6.63;;;3.40;99.90;;;;;;6171445;23;20400;-90
2021/01/10 09:54:25;;;;;;;8.63;7.10;;;4.00;99.90;;;;;;6194439;23;20452;-89
2021/01/10 09:57:01;;;;;;;9.80;7.37;;;3.90;99.90;;;;;;6170250;23;20399;-84
2021/01/10 09:59:38;;;;;;;8.47;6.90;;;4.30;99.90;;;;;;6169080;23;20448;-84
2021/01/10 10:02:17;;;;;;;7.70;6.90;;;4.60;99.30;;;;;;6170137;23;20442;-87
2021/01/10 10:04:45;;;;;;;9.93;8.93;;;4.90;98.70;;;;;;6171854;23;20399;-91
2021/01/10 10:07:14;;;;;;;7.80;6.77;;;5.50;99.90;;;;;;6172937;23;20515;-92
2021/01/10 10:09:53;;;;;;;7.80;7.00;;;5.80;97.50;;;;;;6173654;23;20904;-90
2021/01/10 10:12:21;;;;;;;7.23;6.47;;;5.80;96.50;;;;;;6171479;23;20401;-88
2021/01/10 10:14:54;;;;;;;8.50;6.47;;;5.80;95.90;;;;;;6170580;23;20489;-87
2021/01/10 10:17:21;;;;;;;6.97;6.27;;;6.10;95.80;;;;;;6171537;23;20414;-87
2021/01/10 10:19:48;;;;;;;7.07;6.00;;;6.30;94.30;;;;;;6171105;23;20403;-87
2021/01/10 10:22:31;;;;;;;7.53;6.30;;;6.30;94.50;;;;;;6170875;23;20513;-87
2021/01/10 10:24:58;;;;;;;6.50;5.63;;;6.70;93.60;;;;;;6170855;23;20440;-86
2021/01/10 10:27:52;;;;;;;6.80;6.10;;;7.20;92.60;;;;;;6171254;23;20431;-87
2021/01/10 10:30:18;;;;;;;7.17;6.20;;;7.20;91.00;;;;;;6169984;23;20436;-87
2021/01/10 10:32:47;;;;;;;6.03;5.43;;;7.60;90.10;;;;;;6169670;23;20477;-87
2021/01/10 10:35:13;;;;;;;6.03;5.43;;;8.00;87.60;;;;;;6196157;23;20911;-88
2021/01/10 10:37:40;;;;;;;7.13;6.43;;;8.10;82.40;;;;;;6188567;23;20794;-87
2021/01/10 10:40:06;;;;;;;6.87;6.20;;;8.10;83.00;;;;;;6169632;23;20939;-88
2021/01/10 10:42:32;;;;;;;7.13;6.43;;;8.20;79.30;;;;;;6170734;23;20450;-87
2021/01/10 10:44:57;;;;;;;7.27;6.57;;;8.30;78.40;;;;;;6197276;23;20446;-88
2021/01/10 10:47:23;;;;;;;5.97;5.40;;;8.80;77.50;;;;;;6169518;23;20167;-88
2021/01/10 10:49:49;;;;;;;6.13;5.53;;;9.50;72.80;;;;;;6169131;23;20163;-87
2021/01/10 10:52:16;;;;;;;6.00;5.33;;;9.60;68.50;;;;;;6170327;23;20171;-87
2021/01/10 10:54:41;;;;;;;8.63;5.50;;;9.90;64.40;;;;;;6173036;23;20191;-87
2021/01/10 10:57:11;;;;;;;7.63;5.80;;;9.40;64.20;;;;;;6171635;23;20442;-90
2021/01/10 10:59:39;;;;;;;5.70;5.20;;;9.60;64.10;;;;;;6173044;23;20187;-85
2021/01/10 11:02:25;;;;;;;5.40;4.90;;;9.30;62.50;;;;;;6172907;23;20446;-87
2021/01/10 11:04:52;;;;;;;6.50;5.90;;;9.10;64.40;;;;;;6173067;23;20417;-87
2021/01/10 11:07:18;;;;;;;7.00;6.20;;;9.70;62.50;;;;;;6170827;23;20580;-87
2021/01/10 11:09:47;;;;;;;5.83;5.23;;;10.20;58.60;;;;;;6171817;23;20775;-89
2021/01/10 11:12:32;;;;;;;6.87;5.87;;;10.70;57.10;;;;;;6163469;23;20171;-89
2021/01/10 11:15:01;;;;;;;8.17;6.47;;;10.60;56.40;;;;;;6171827;23;20927;-89
2021/01/10 11:17:26;;;;;;;7.63;6.90;;;10.90;56.20;;;;;;6196763;23;20413;-88
2021/01/10 11:20:01;;;;;;;9.43;6.03;;;11.80;53.60;;;;;;6172261;23;20402;-88
2021/01/10 11:22:30;;;;;;;7.17;6.57;;;10.90;53.10;;;;;;6172665;23;20476;-90
2021/01/10 11:24:56;;;;;;;6.17;5.60;;;9.90;57.20;;;;;;6173035;23;20991;-90
2021/01/10 11:27:22;;;;;;;6.23;5.63;;;10.20;55.50;;;;;;6172300;23;20485;-90
2021/01/10 11:29:48;;;;;;;6.77;6.07;;;9.40;56.70;;;;;;6171133;23;20179;-89
2021/01/10 11:32:16;;;;;;;7.87;6.57;;;8.10;59.40;;;;;;6200396;23;20397;-90
2021/01/10 11:34:42;;;;;;;6.90;6.20;;;7.00;64.60;;;;;;6171846;23;20733;-90
2021/01/10 11:37:11;;;;;;;10.07;5.93;;;6.30;71.30;;;;;;6172379;23;20805;-89
2021/01/10 11:39:41;;;;;;;7.27;6.47;;;5.80;78.00;;;;;;6200253;23;20249;-89
2021/01/10 11:42:13;;;;;;;7.80;6.60;;;5.50;82.40;;;;;;6171514;23;20448;-90
2021/01/10 11:44:38;;;;;;;8.00;7.20;;;5.00;88.60;;;;;;6171773;23;20391;-89
2021/01/10 11:47:04;;;;;;;9.97;6.23;;;6.10;91.30;;;;;;6170551;23;20832;-88
2021/01/10 11:49:30;;;;;;;7.80;6.60;;;8.90;78.40;;;;;;6171560;23;20731;-90
2021/01/10 11:51:56;;;;;;;7.20;6.20;;;11.30;61.60;;;;;;6172623;23;20175;-88
2021/01/10 11:54:22;;;;;;;6.93;6.23;;;13.20;52.50;;;;;;6172438;23;20402;-89
2021/01/10 11:56:49;;;;;;;8.10;7.30;;;14.10;47.40;;;;;;6170838;23;21126;-87
2021/01/10 11:59:16;;;;;;;7.73;6.93;;;12.30;48.10;;;;;;6171398;23;20171;-92
2021/01/10 12:01:43;;;;;;;7.60;6.87;;;12.30;49.50;;;;;;6171202;23;20509;-88
2021/01/10 12:04:09;;;;;;;7.73;7.03;;;12.90;48.70;;;;;;6170440;23;20395;-89
2021/01/10 12:06:36;;;;;;;9.37;8.50;;;12.90;49.00;;;;;;6170612;23;20729;-87
2021/01/10 12:09:11;;;;;;;8.73;7.83;;;11.80;49.30;;;;;;6197934;23;20379;-87
2021/01/10 12:11:40;;;;;;;8.73;7.90;;;12.00;50.60;;;;;;6174458;23;20742;-87
2021/01/10 12:14:07;;;;;;;8.53;7.73;;;12.40;49.10;;;;;;6174039;23;20512;-87
2021/01/10 12:16:37;;;;;;;8.80;7.67;;;11.70;48.30;;;;;;6173148;23;20398;-88
2021/01/10 12:19:04;;;;;;;9.80;8.10;;;10.90;51.30;;;;;;6171653;23;20398;-87
2021/01/10 12:21:30;;;;;;;8.67;7.77;;;11.30;50.70;;;;;;6198822;23;20426;-86
2021/01/10 12:23:55;;;;;;;9.13;8.23;;;10.50;51.50;;;;;;6171551;23;20468;-87
2021/01/10 12:26:21;;;;;;;8.07;7.23;;;9.10;54.50;;;;;;6195664;23;20160;-87
2021/01/10 12:28:53;;;;;;;9.37;7.77;;;7.60;60.10;;;;;;6170685;23;20466;-87
2021/01/10 12:31:20;;;;;;;8.70;7.47;;;6.30;68.00;;;;;;6171829;23;20430;-87
2021/01/10 12:33:47;;;;;;;7.90;7.10;;;5.80;80.20;;;;;;6171831;23;20553;-87
2021/01/10 12:36:34;;;;;;;9.00;7.47;;;5.60;85.40;;;;;;6172956;23;20615;-87
2021/01/10 12:39:04;;;;;;;8.77;7.67;;;5.10;91.60;;;;;;6198212;23;20412;-87
2021/01/10 12:41:31;;;;;;;9.73;7.33;;;5.00;91.90;;;;;;6172010;23;20444;-88
2021/01/10 12:43:57;;;;;;;8.37;7.10;;;4.70;92.20;;;;;;6172279;23;20175;-88
2021/01/10 12:46:30;;;;;;;9.63;7.50;;;4.50;93.90;;;;;;6171542;23;20427;-88
2021/01/10 12:48:57;;;;;;;7.90;7.03;;;4.50;94.40;;;;;;6197716;23;20481;-87
2021/01/10 12:54:09;;;;;;;9.23;7.70;;;4.20;97.10;;;;;;6200941;23;20390;-92
2021/01/10 12:56:35;;;;;;;7.80;6.67;;;4.10;97.40;;;;;;6174818;23;20494;-95
2021/01/10 12:59:05;;;;;;;10.30;7.10;;;4.10;99.00;;;;;;6178560;23;20969;-87
2021/01/10 13:01:35;;;;;;;9.80;6.03;;;4.20;98.10;;;;;;6172743;23;20434;-86
2021/01/10 13:04:01;;;;;;;10.70;7.47;;;4.00;97.40;;;;;;6171303;23;20759;-87
2021/01/10 13:06:27;;;;;;;11.80;7.77;;;3.80;98.30;;;;;;6172499;23;20402;-87
2021/01/10 13:08:52;;;;;;;10.50;7.97;;;4.10;98.80;;;;;;6172288;23;20174;-86
2021/01/10 13:11:22;;;;;;;10.10;7.10;;;4.30;98.10;;;;;;6171051;23;20501;-86